EDT,Max TemperatureF,Mean TemperatureF,Min TemperatureF,Max Dew PointF,MeanDew PointF,Min DewpointF,Max Humidity, Mean Humidity, Min Humidity, Max Sea Level PressureIn, Mean Sea Level PressureIn, Min Sea Level PressureIn, Max VisibilityMiles, Mean VisibilityMiles, Min VisibilityMiles, Max Wind SpeedMPH, Mean Wind SpeedMPH, Max Gust SpeedMPH,PrecipitationIn, CloudCover, Events, WindDirDegrees
2013-3-1,52,46,39,35,29,27,68,52,40,29.99,29.95,29.90,10,10,10,13,9,,0.00,2,,304
2013-3-2,50,43,36,31,29,25,73,57,41,29.97,29.94,29.89,10,10,10,16,10,26,0.00,4,,288
2013-3-3,45,39,33,27,25,21,75,57,42,30.06,29.99,29.94,10,10,10,14,9,18,0.00,4,,300
2013-3-4,57,44,30,41,24,16,77,51,22,30.22,30.14,30.07,10,10,10,12,7,,0.00,0,,288
2013-3-5,64,52,39,55,45,36,93,68,39,30.15,29.99,29.76,10,10,6,16,6,28,0.02,4,Rain,209
2013-3-6,57,49,41,51,29,20,81,49,32,30.11,29.93,29.78,10,10,10,25,16,37,0.00,2,,301
2013-3-7,60,48,36,40,31,27,85,58,32,30.25,30.19,30.14,10,10,10,10,7,,0.00,2,,336
2013-3-8,62,48,35,36,30,22,93,58,21,30.30,30.24,30.18,10,9,1,13,5,21,0.00,0,,19
2013-3-9,63,50,37,43,35,27,93,60,33,30.35,30.28,30.25,10,10,10,10,4,,0.00,0,,108
2013-3-10,66,52,39,50,41,37,96,76,41,30.30,30.24,30.20,10,7,0,14,2,21,0.00,1,Fog,96
2013-3-11,71,59,48,58,51,39,93,74,53,30.20,30.06,29.92,10,10,10,12,3,20,0.00,3,Fog,166
2013-3-12,72,63,55,63,56,38,94,77,34,29.99,29.88,29.84,10,7,1,13,10,21,0.14,6,Rain,234
2013-3-13,66,56,48,37,28,21,57,36,19,30.16,30.08,30.00,10,10,10,18,10,26,0.00,0,,320
2013-3-14,57,47,37,33,23,18,73,41,23,30.34,30.24,30.16,10,10,10,20,11,28,0.00,0,,321
2013-3-15,70,53,36,47,34,26,79,56,24,30.26,30.17,30.07,10,9,5,12,5,,0.00,0,,244
2013-3-16,80,67,55,46,40,35,69,42,24,30.06,30.00,29.91,10,10,10,25,11,36,0.00,0,,255
2013-3-17,79,66,55,55,50,44,86,62,35,30.07,30.02,29.97,10,10,10,15,9,24,0.00,1,,234
2013-3-18,68,62,57,61,57,53,94,84,70,30.09,29.99,29.87,10,8,1,24,6,34,0.69,7,Rain-Thunderstorm,171
2013-3-19,75,64,54,56,49,29,97,69,19,30.02,29.93,29.84,10,9,2,14,7,23,0.02,3,Rain,305
2013-3-20,66,54,43,41,31,21,80,44,21,30.11,29.99,29.86,10,10,10,16,7,,0.00,3,,74
2013-3-21,59,49,41,38,21,11,79,36,16,29.97,29.88,29.84,10,10,10,20,10,28,0.00,2,,304
2013-3-22,55,46,36,43,30,17,83,53,38,30.11,30.06,29.97,10,10,10,13,5,,0.00,6,,66
2013-3-23,60,52,46,52,47,42,94,80,62,30.06,29.96,29.86,10,9,4,17,5,23,0.12,8,Rain-Thunderstorm,72
2013-3-24,70,60,50,65,54,46,100,90,78,29.82,29.60,29.49,10,7,2,29,10,40,1.52,8,Rain-Thunderstorm,77
2013-3-25,59,51,43,48,32,18,88,53,24,30.01,29.77,29.62,10,10,10,24,10,37,0.00,3,,301
2013-3-26,52,43,36,26,23,19,57,44,33,30.22,30.09,30.03,10,10,10,21,13,28,0.00,2,,302
2013-3-27,59,46,34,34,27,23,75,50,26,30.30,30.25,30.20,10,10,10,14,7,23,0.00,0,,310
2013-3-28,63,50,37,39,27,20,83,48,20,30.33,30.26,30.21,10,10,10,14,6,20,0.00,0,,346
2013-3-29,64,50,37,47,38,29,100,72,30,30.36,30.29,30.23,10,6,0,9,3,,0.00,0,Fog,125
2013-3-30,73,62,53,50,46,42,83,58,36,30.25,30.17,30.09,10,10,10,13,6,21,0.00,3,,202
2013-3-31,75,63,53,58,53,47,94,73,53,30.10,30.01,29.92,10,8,1,13,7,23,0.11,4,Rain-Thunderstorm,213